Time;durP1;ratioP1;P1;durP2;ratioP2;P2;SDS_P1;SDS_P2;PMS_P1;PMS_P2;Temp;Humidity;BMP_temperature;BMP_pressure;BME280_temperature;BME280_humidity;BME280_pressure;Samples;Min_cycle;Max_cycle;Signal;HPM_P1;HPM_P2
2022/10/23 00:00:32;;;;;;;22.83;11.77;;;;;;;;;;5090272;28;20169;-79
2022/10/23 00:02:59;;;;;;;22.60;10.40;;;;;;;;;;5102343;27;20056;-81
2022/10/23 00:05:26;;;;;;;21.00;10.23;;;;;;;;;;5125671;27;20059;-79
2022/10/23 00:07:54;;;;;;;23.73;10.35;;;;;;;;;;5128193;27;20048;-80
2022/10/23 00:10:21;;;;;;;22.40;10.65;;;;;;;;;;5108577;27;20056;-80
2022/10/23 00:12:48;;;;;;;18.73;9.98;;;;;;;;;;5109778;27;20052;-79
2022/10/23 00:15:15;;;;;;;16.08;9.48;;;;;;;;;;5111023;27;20052;-79
2022/10/23 00:17:42;;;;;;;18.38;9.45;;;;;;;;;;5111217;27;20533;-81
2022/10/23 00:20:09;;;;;;;17.63;9.52;;;;;;;;;;5107308;28;20568;-79
2022/10/23 00:22:36;;;;;;;15.55;9.20;;;;;;;;;;5104364;27;20943;-80
2022/10/23 00:25:04;;;;;;;19.92;10.60;;;;;;;;;;5110057;27;20056;-79
2022/10/23 00:27:30;;;;;;;15.00;9.45;;;;;;;;;;5111193;27;20056;-80
2022/10/23 00:29:56;;;;;;;21.00;10.48;;;;;;;;;;5099845;27;20052;-80
2022/10/23 00:32:23;;;;;;;20.70;10.15;;;;;;;;;;5103420;28;20098;-80
2022/10/23 00:34:49;;;;;;;16.73;8.93;;;;;;;;;;5089375;28;20098;-80
2022/10/23 00:37:15;;;;;;;18.00;9.60;;;;;;;;;;5105756;28;20056;-80
2022/10/23 00:39:42;;;;;;;17.20;9.68;;;;;;;;;;5091011;28;20055;-80
2022/10/23 00:42:12;;;;;;;13.18;8.98;;;;;;;;;;5092809;27;20048;-80
2022/10/23 00:44:39;;;;;;;;;;;;;;;;;;5111840;27;20048;-81
2022/10/23 00:47:05;;;;;;;14.70;8.77;;;;;;;;;;5104789;28;44508;-79
2022/10/23 00:49:31;;;;;;;17.10;8.80;;;;;;;;;;5092653;27;20063;-80
2022/10/23 00:52:00;;;;;;;19.75;9.35;;;;;;;;;;5110308;28;20087;-79
2022/10/23 00:54:29;;;;;;;19.15;9.68;;;;;;;;;;5109017;28;20055;-80
2022/10/23 00:56:58;;;;;;;20.95;9.50;;;;;;;;;;5111195;28;20056;-80
2022/10/23 00:59:24;;;;;;;17.65;9.25;;;;;;;;;;5112212;27;20056;-80
2022/10/23 01:01:51;;;;;;;16.02;9.00;;;;;;;;;;5093239;27;20075;-80
2022/10/23 01:04:17;;;;;;;21.08;8.63;;;;;;;;;;5090700;28;20527;-81
2022/10/23 01:06:47;;;;;;;20.50;9.10;;;;;;;;;;5094794;28;20043;-81
2022/10/23 01:09:32;;;;;;;16.53;8.87;;;;;;;;;;5108156;28;20044;-81
2022/10/23 01:12:17;;;;;;;13.23;7.55;;;;;;;;;;5106607;27;20282;-80
2022/10/23 01:14:54;;;;;;;15.77;8.07;;;;;;;;;;5106595;28;20037;-80
2022/10/23 01:17:32;;;;;;;15.57;9.05;;;;;;;;;;5111682;28;20060;-80
2022/10/23 01:20:17;;;;;;;13.88;8.10;;;;;;;;;;5113148;27;20054;-80
2022/10/23 01:22:49;;;;;;;13.65;7.65;;;;;;;;;;5093270;27;20059;-80
2022/10/23 01:25:18;;;;;;;14.00;7.50;;;;;;;;;;5125992;27;21022;-80
2022/10/23 01:27:48;;;;;;;14.18;8.13;;;;;;;;;;5110978;28;20052;-79
2022/10/23 01:30:16;;;;;;;11.98;8.38;;;;;;;;;;5107046;27;20060;-78
2022/10/23 01:32:57;;;;;;;22.08;9.13;;;;;;;;;;5102717;27;20090;-77
2022/10/23 01:35:23;;;;;;;;;;;;;;;;;;5111783;27;20074;-79
2022/10/23 01:37:53;;;;;;;16.75;8.63;;;;;;;;;;5108871;28;44137;-79
2022/10/23 01:40:36;;;;;;;14.50;8.73;;;;;;;;;;5109062;27;20060;-79
2022/10/23 01:43:08;;;;;;;22.38;9.55;;;;;;;;;;5115532;27;20053;-79
2022/10/23 01:45:56;;;;;;;19.38;9.68;;;;;;;;;;5103496;27;20063;-79
2022/10/23 01:48:24;;;;;;;20.23;9.70;;;;;;;;;;5114939;28;20585;-79
2022/10/23 01:50:52;;;;;;;18.50;9.38;;;;;;;;;;5112728;27;20032;-78
2022/10/23 01:53:19;;;;;;;26.23;12.45;;;;;;;;;;5111725;27;20044;-79
2022/10/23 01:55:46;;;;;;;19.92;10.65;;;;;;;;;;5114110;27;20106;-79
2022/10/23 01:58:14;;;;;;;16.33;10.25;;;;;;;;;;5112955;27;20063;-79
2022/10/23 02:00:41;;;;;;;18.33;9.52;;;;;;;;;;5127435;27;20415;-80
2022/10/23 02:03:08;;;;;;;18.65;10.00;;;;;;;;;;5104462;27;20040;-79
2022/10/23 02:05:34;;;;;;;21.00;11.25;;;;;;;;;;5089706;28;20056;-80
2022/10/23 02:08:01;;;;;;;17.55;10.07;;;;;;;;;;5092645;27;20059;-78
2022/10/23 02:10:38;;;;;;;18.00;10.23;;;;;;;;;;5124453;27;20047;-78
2022/10/23 02:13:09;;;;;;;16.75;9.40;;;;;;;;;;5110462;27;20503;-80
2022/10/23 02:15:39;;;;;;;17.20;9.80;;;;;;;;;;5094818;28;20084;-80
2022/10/23 02:18:12;;;;;;;19.63;9.95;;;;;;;;;;5093228;28;20044;-79
2022/10/23 02:20:47;;;;;;;18.23;9.70;;;;;;;;;;5115814;27;20052;-78
2022/10/23 02:23:32;;;;;;;21.98;10.65;;;;;;;;;;5096262;27;20507;-79
2022/10/23 02:26:01;;;;;;;17.83;10.63;;;;;;;;;;5113233;27;20062;-79
2022/10/23 02:28:30;;;;;;;25.42;13.10;;;;;;;;;;5111510;27;20113;-79
2022/10/23 02:30:58;;;;;;;22.45;12.38;;;;;;;;;;5121582;27;20036;-78
2022/10/23 02:33:26;;;;;;;25.30;13.18;;;;;;;;;;5096000;27;20052;-79
2022/10/23 02:35:52;;;;;;;25.77;11.93;;;;;;;;;;5094813;28;20060;-78
2022/10/23 02:38:27;;;;;;;21.88;10.75;;;;;;;;;;5096154;28;20044;-79
2022/10/23 02:40:55;;;;;;;19.10;10.07;;;;;;;;;;5136172;27;20097;-80
2022/10/23 02:43:29;;;;;;;20.80;11.00;;;;;;;;;;5111153;27;20059;-80
2022/10/23 02:45:58;;;;;;;16.45;10.05;;;;;;;;;;5107705;27;20037;-79
2022/10/23 02:48:31;;;;;;;17.95;9.90;;;;;;;;;;5099543;27;20056;-79
2022/10/23 02:51:13;;;;;;;17.80;9.73;;;;;;;;;;5104635;28;20607;-79
2022/10/23 02:53:39;;;;;;;22.45;11.25;;;;;;;;;;5115787;27;21181;-78
2022/10/23 02:56:19;;;;;;;24.35;11.55;;;;;;;;;;5112703;28;20056;-79
2022/10/23 02:58:53;;;;;;;17.88;11.10;;;;;;;;;;5117520;27;20047;-79
2022/10/23 03:01:21;;;;;;;19.55;10.63;;;;;;;;;;5110847;27;20048;-79
2022/10/23 03:03:51;;;;;;;19.90;10.27;;;;;;;;;;5098751;27;20139;-79
2022/10/23 03:06:17;;;;;;;22.15;10.05;;;;;;;;;;5094604;28;20060;-80
2022/10/23 03:08:47;;;;;;;20.52;10.50;;;;;;;;;;5112546;27;20079;-78
2022/10/23 03:11:14;;;;;;;20.30;10.82;;;;;;;;;;5117864;27;20056;-80
2022/10/23 03:13:40;;;;;;;18.75;9.60;;;;;;;;;;5102219;27;20051;-78
2022/10/23 03:16:06;;;;;;;18.70;10.20;;;;;;;;;;5109865;28;20048;-80
2022/10/23 03:18:33;;;;;;;24.30;10.93;;;;;;;;;;5120695;27;20058;-79
2022/10/23 03:20:59;;;;;;;19.88;10.50;;;;;;;;;;5118918;27;20067;-79
2022/10/23 03:23:25;;;;;;;26.05;10.35;;;;;;;;;;5101830;27;20056;-80
2022/10/23 03:25:52;;;;;;;25.52;11.32;;;;;;;;;;5108518;27;20063;-79
2022/10/23 03:28:18;;;;;;;22.67;10.93;;;;;;;;;;5126941;27;20553;-79
2022/10/23 03:30:45;;;;;;;15.70;9.50;;;;;;;;;;5133715;27;20083;-79
2022/10/23 03:33:11;;;;;;;19.90;9.63;;;;;;;;;;5119398;27;20137;-78
2022/10/23 03:35:37;;;;;;;25.50;10.98;;;;;;;;;;5120985;27;20125;-78
2022/10/23 03:38:04;;;;;;;18.90;10.07;;;;;;;;;;5108939;27;20048;-79
2022/10/23 03:40:30;;;;;;;19.33;9.48;;;;;;;;;;5116166;27;20086;-78
2022/10/23 03:42:56;;;;;;;19.20;10.00;;;;;;;;;;5108612;27;20056;-79
2022/10/23 03:45:23;;;;;;;21.23;11.25;;;;;;;;;;5108013;28;20052;-79
2022/10/23 03:47:50;;;;;;;21.77;11.05;;;;;;;;;;5098406;27;20063;-79
2022/10/23 03:50:17;;;;;;;26.48;11.27;;;;;;;;;;5132226;27;20063;-78
2022/10/23 03:52:44;;;;;;;25.98;12.43;;;;;;;;;;5110338;27;20052;-80
2022/10/23 03:55:10;;;;;;;27.67;12.40;;;;;;;;;;5102344;28;20530;-79
2022/10/23 03:57:37;;;;;;;22.75;12.30;;;;;;;;;;5097568;28;20056;-79
2022/10/23 04:00:04;;;;;;;17.45;10.27;;;;;;;;;;5133511;27;20100;-79
2022/10/23 04:02:30;;;;;;;27.00;11.30;;;;;;;;;;5107223;27;20055;-79
2022/10/23 04:04:57;;;;;;;21.08;10.57;;;;;;;;;;5091476;28;20107;-79
2022/10/23 04:07:24;;;;;;;18.13;9.57;;;;;;;;;;5102260;27;20056;-80
2022/10/23 04:09:50;;;;;;;18.90;9.38;;;;;;;;;;5122082;27;20095;-80
2022/10/23 04:12:17;;;;;;;17.50;9.07;;;;;;;;;;5101363;27;20052;-79
2022/10/23 04:14:43;;;;;;;22.17;9.65;;;;;;;;;;5091944;28;20052;-78
2022/10/23 04:17:09;;;;;;;17.35;8.90;;;;;;;;;;5091003;28;20589;-79
2022/10/23 04:19:36;;;;;;;20.02;10.65;;;;;;;;;;5092582;28;20561;-79
2022/10/23 04:22:02;;;;;;;19.73;9.57;;;;;;;;;;5098601;27;20099;-80
2022/10/23 04:24:28;;;;;;;20.25;9.63;;;;;;;;;;5092444;28;20053;-79
2022/10/23 04:26:54;;;;;;;21.90;9.82;;;;;;;;;;5092959;28;20044;-79
2022/10/23 04:29:23;;;;;;;19.42;10.00;;;;;;;;;;5106835;28;20063;-79
2022/10/23 04:31:50;;;;;;;21.13;9.85;;;;;;;;;;5106786;27;20059;-80
2022/10/23 04:34:17;;;;;;;23.25;11.05;;;;;;;;;;5132548;27;20639;-78
2022/10/23 04:36:43;;;;;;;24.40;10.60;;;;;;;;;;5126526;27;20055;-79
2022/10/23 04:39:10;;;;;;;18.58;9.77;;;;;;;;;;5094504;27;20052;-80
2022/10/23 04:41:37;;;;;;;21.05;9.75;;;;;;;;;;5101235;27;20067;-80
2022/10/23 04:44:04;;;;;;;20.15;9.25;;;;;;;;;;5096255;28;20529;-79
2022/10/23 04:46:30;;;;;;;24.23;9.43;;;;;;;;;;5093280;28;20091;-79
2022/10/23 04:48:56;;;;;;;18.25;9.38;;;;;;;;;;5113733;27;20052;-79
2022/10/23 04:51:22;;;;;;;24.25;9.32;;;;;;;;;;5122575;27;20526;-80
2022/10/23 04:53:49;;;;;;;17.90;9.20;;;;;;;;;;5102453;27;20054;-80
2022/10/23 04:56:15;;;;;;;22.73;10.75;;;;;;;;;;5092901;27;20048;-78
2022/10/23 04:58:41;;;;;;;25.52;10.43;;;;;;;;;;5126442;27;20051;-78
2022/10/23 05:01:11;;;;;;;24.80;11.25;;;;;;;;;;5125268;27;20105;-79
2022/10/23 05:03:37;;;;;;;22.42;10.05;;;;;;;;;;5111899;28;20063;-80
2022/10/23 05:06:04;;;;;;;21.73;10.48;;;;;;;;;;5113019;27;20066;-79
2022/10/23 05:08:30;;;;;;;17.48;8.88;;;;;;;;;;5112909;27;20106;-79
2022/10/23 05:10:56;;;;;;;20.05;10.48;;;;;;;;;;5106827;27;20044;-79
2022/10/23 05:13:23;;;;;;;21.02;10.43;;;;;;;;;;5091194;28;20095;-79
2022/10/23 05:15:50;;;;;;;20.30;8.88;;;;;;;;;;5092255;28;20123;-80
2022/10/23 05:18:20;;;;;;;20.42;10.43;;;;;;;;;;5107000;28;20055;-80
2022/10/23 05:20:47;;;;;;;;;;;;;;;;;;5111383;27;20059;-79
2022/10/23 05:23:14;;;;;;;16.75;9.68;;;;;;;;;;5111925;28;47086;-79
2022/10/23 05:25:40;;;;;;;23.60;10.90;;;;;;;;;;5110209;28;20133;-79
2022/10/23 05:28:07;;;;;;;24.98;10.30;;;;;;;;;;5120673;27;20098;-79
2022/10/23 05:30:33;;;;;;;23.05;11.15;;;;;;;;;;5114316;27;20048;-79
2022/10/23 05:33:00;;;;;;;23.40;10.90;;;;;;;;;;5096087;28;20522;-80
2022/10/23 05:35:28;;;;;;;22.52;10.55;;;;;;;;;;5093127;27;20507;-80
2022/10/23 05:37:55;;;;;;;25.73;11.07;;;;;;;;;;5103608;28;20923;-80
2022/10/23 05:40:21;;;;;;;28.30;11.95;;;;;;;;;;5110131;27;20063;-79
2022/10/23 05:42:48;;;;;;;23.10;10.65;;;;;;;;;;5106052;27;20024;-78
2022/10/23 05:45:14;;;;;;;21.63;11.07;;;;;;;;;;5110212;27;20502;-79
2022/10/23 05:47:42;;;;;;;27.92;11.13;;;;;;;;;;5119810;27;20109;-79
2022/10/23 05:50:08;;;;;;;28.13;10.95;;;;;;;;;;5119681;27;20892;-79
2022/10/23 05:52:35;;;;;;;25.63;11.43;;;;;;;;;;5110421;28;20047;-79
2022/10/23 05:55:01;;;;;;;26.17;11.35;;;;;;;;;;5106567;27;20060;-80
2022/10/23 05:57:30;;;;;;;24.38;11.05;;;;;;;;;;5112044;27;20047;-79
2022/10/23 05:59:56;;;;;;;23.88;11.10;;;;;;;;;;5118875;27;20056;-79
2022/10/23 06:02:23;;;;;;;22.98;11.00;;;;;;;;;;5113947;28;20067;-79
2022/10/23 06:04:49;;;;;;;23.77;10.65;;;;;;;;;;5108238;28;20056;-80
2022/10/23 06:07:15;;;;;;;21.98;10.57;;;;;;;;;;5097317;27;20525;-80
2022/10/23 06:09:42;;;;;;;23.30;11.45;;;;;;;;;;5127441;27;20044;-80
2022/10/23 06:12:08;;;;;;;25.98;10.75;;;;;;;;;;5108765;27;20053;-80
2022/10/23 06:14:34;;;;;;;24.65;11.32;;;;;;;;;;5113662;27;20059;-80
2022/10/23 06:17:01;;;;;;;21.55;10.95;;;;;;;;;;5111695;27;20098;-80
2022/10/23 06:19:27;;;;;;;22.20;10.38;;;;;;;;;;5112593;27;20515;-79
2022/10/23 06:21:53;;;;;;;20.85;11.07;;;;;;;;;;5095082;28;20567;-80
2022/10/23 06:24:20;;;;;;;24.02;10.70;;;;;;;;;;5095870;28;20067;-78
2022/10/23 06:26:46;;;;;;;28.73;12.27;;;;;;;;;;5098702;27;20063;-78
2022/10/23 06:29:12;;;;;;;22.52;11.25;;;;;;;;;;5105893;27;20044;-80
2022/10/23 06:31:38;;;;;;;20.80;9.93;;;;;;;;;;5103247;28;20048;-79
2022/10/23 06:34:05;;;;;;;23.75;11.10;;;;;;;;;;5105122;27;20056;-79
2022/10/23 06:36:31;;;;;;;24.48;10.90;;;;;;;;;;5114242;28;20048;-80
2022/10/23 06:38:57;;;;;;;20.45;10.32;;;;;;;;;;5130338;27;20059;-80
2022/10/23 06:41:24;;;;;;;21.52;10.77;;;;;;;;;;5103308;27;20067;-78
2022/10/23 06:43:52;;;;;;;24.90;10.38;;;;;;;;;;5097609;28;20037;-80
2022/10/23 06:46:18;;;;;;;21.27;11.23;;;;;;;;;;5108552;27;20059;-80
2022/10/23 06:48:45;;;;;;;25.08;11.35;;;;;;;;;;5114214;28;20048;-79
2022/10/23 06:51:15;;;;;;;21.88;10.10;;;;;;;;;;5115166;27;20047;-80
2022/10/23 06:53:42;;;;;;;28.58;11.98;;;;;;;;;;5114103;27;20096;-80
2022/10/23 06:56:09;;;;;;;25.98;11.57;;;;;;;;;;5133966;27;20051;-80
2022/10/23 06:58:36;;;;;;;29.90;11.52;;;;;;;;;;5132473;27;20055;-79
2022/10/23 07:01:04;;;;;;;26.83;10.23;;;;;;;;;;5109947;27;20048;-80
2022/10/23 07:03:30;;;;;;;22.77;10.52;;;;;;;;;;5117837;27;20102;-80
2022/10/23 07:06:01;;;;;;;23.67;10.30;;;;;;;;;;5093519;28;20081;-79
2022/10/23 07:08:27;;;;;;;24.67;10.48;;;;;;;;;;5094202;28;20049;-79
2022/10/23 07:10:54;;;;;;;17.02;9.50;;;;;;;;;;5095159;28;20059;-79
2022/10/23 07:13:21;;;;;;;26.20;10.80;;;;;;;;;;5096193;27;20063;-78
2022/10/23 07:15:47;;;;;;;21.50;10.38;;;;;;;;;;5096767;27;20089;-80
2022/10/23 07:18:15;;;;;;;25.23;11.32;;;;;;;;;;5115613;27;20047;-81
2022/10/23 07:20:41;;;;;;;23.35;10.32;;;;;;;;;;5101759;27;20086;-81
2022/10/23 07:23:09;;;;;;;22.83;10.18;;;;;;;;;;5104778;27;20055;-81
2022/10/23 07:25:36;;;;;;;23.90;10.25;;;;;;;;;;5114604;28;20059;-81
2022/10/23 07:28:03;;;;;;;18.52;9.00;;;;;;;;;;5110493;28;20052;-80
2022/10/23 07:30:30;;;;;;;20.48;9.93;;;;;;;;;;5110301;28;20075;-82
2022/10/23 07:32:56;;;;;;;21.98;9.70;;;;;;;;;;5110558;27;20158;-82
2022/10/23 07:35:22;;;;;;;18.73;9.75;;;;;;;;;;5108934;28;20102;-81
2022/10/23 07:37:48;;;;;;;25.27;10.27;;;;;;;;;;5111585;28;20059;-82
2022/10/23 07:40:16;;;;;;;18.95;9.05;;;;;;;;;;5111370;28;20056;-82
2022/10/23 07:42:42;;;;;;;21.10;10.05;;;;;;;;;;5112725;27;20511;-83
2022/10/23 07:45:09;;;;;;;24.20;10.07;;;;;;;;;;5112824;28;20579;-82
2022/10/23 07:47:35;;;;;;;17.98;9.45;;;;;;;;;;5111173;28;20557;-83
2022/10/23 07:50:01;;;;;;;18.00;9.20;;;;;;;;;;5110315;27;20063;-82
2022/10/23 07:52:28;;;;;;;19.35;8.93;;;;;;;;;;5111109;27;20060;-82
2022/10/23 07:55:00;;;;;;;24.63;9.38;;;;;;;;;;5110590;28;20190;-82
2022/10/23 07:57:26;;;;;;;19.58;8.95;;;;;;;;;;5114087;27;20055;-82
2022/10/23 07:59:53;;;;;;;17.08;9.43;;;;;;;;;;5113258;27;20048;-82
2022/10/23 08:02:19;;;;;;;19.00;9.57;;;;;;;;;;5111087;27;20533;-79
2022/10/23 08:04:47;;;;;;;18.67;8.50;;;;;;;;;;5117516;27;20578;-83
2022/10/23 08:07:16;;;;;;;19.15;8.70;;;;;;;;;;5119339;27;20044;-84
2022/10/23 08:09:43;;;;;;;17.85;9.40;;;;;;;;;;5116001;28;20040;-83
2022/10/23 08:12:11;;;;;;;18.88;8.25;;;;;;;;;;5122614;27;20059;-86
2022/10/23 08:14:40;;;;;;;20.95;8.43;;;;;;;;;;5114586;27;20051;-85
2022/10/23 08:17:08;;;;;;;21.15;8.65;;;;;;;;;;5115203;28;20064;-83
2022/10/23 08:19:35;;;;;;;14.40;8.55;;;;;;;;;;5114214;27;20052;-82
2022/10/23 08:22:05;;;;;;;16.57;8.03;;;;;;;;;;5113034;27;20147;-82
2022/10/23 08:24:32;;;;;;;17.42;8.25;;;;;;;;;;5114492;28;20056;-85
2022/10/23 08:26:58;;;;;;;19.55;9.13;;;;;;;;;;5109827;27;20059;-84
2022/10/23 08:29:25;;;;;;;13.95;8.07;;;;;;;;;;5103997;27;20051;-82
2022/10/23 08:31:52;;;;;;;16.42;7.75;;;;;;;;;;5095347;28;20052;-85
2022/10/23 08:34:20;;;;;;;15.43;8.32;;;;;;;;;;5106894;27;20056;-81
2022/10/23 08:36:46;;;;;;;19.13;7.80;;;;;;;;;;5106546;27;20999;-84
2022/10/23 08:39:12;;;;;;;16.20;7.68;;;;;;;;;;5105500;27;20059;-82
2022/10/23 08:41:49;;;;;;;13.55;6.85;;;;;;;;;;5109029;27;20087;-82
2022/10/23 08:44:15;;;;;;;17.60;7.38;;;;;;;;;;5097585;27;20040;-82
2022/10/23 08:46:53;;;;;;;15.82;7.63;;;;;;;;;;5104136;27;20052;-83
2022/10/23 08:49:33;;;;;;;14.43;7.70;;;;;;;;;;5111980;27;20139;-86
2022/10/23 08:52:09;;;;;;;15.10;6.93;;;;;;;;;;5127042;27;20113;-81
2022/10/23 08:54:39;;;;;;;14.07;7.18;;;;;;;;;;5104255;27;20048;-81
2022/10/23 08:57:11;;;;;;;16.17;7.47;;;;;;;;;;5111729;27;20499;-83
2022/10/23 08:59:49;;;;;;;15.15;7.05;;;;;;;;;;5120286;27;20533;-86
2022/10/23 09:02:19;;;;;;;11.57;6.40;;;;;;;;;;5111029;27;20064;-82
2022/10/23 09:04:49;;;;;;;19.17;6.32;;;;;;;;;;5113064;27;20102;-79
2022/10/23 09:07:28;;;;;;;10.35;6.18;;;;;;;;;;5110789;27;20063;-83
2022/10/23 09:10:04;;;;;;;13.98;6.60;;;;;;;;;;5106161;27;20048;-79
2022/10/23 09:12:30;;;;;;;13.07;6.20;;;;;;;;;;5112789;27;20048;-84
2022/10/23 09:15:15;;;;;;;12.82;5.97;;;;;;;;;;5095612;27;20052;-85
2022/10/23 09:17:47;;;;;;;13.73;6.13;;;;;;;;;;5106625;27;20048;-84
2022/10/23 09:20:27;;;;;;;11.57;5.47;;;;;;;;;;5101585;27;20503;-84
2022/10/23 09:22:58;;;;;;;12.60;5.70;;;;;;;;;;5108564;27;20076;-87
2022/10/23 09:25:33;;;;;;;11.35;5.50;;;;;;;;;;5106291;27;20055;-88
2022/10/23 09:28:02;;;;;;;12.98;5.68;;;;;;;;;;5107788;27;20144;-83
2022/10/23 09:30:38;;;;;;;13.27;7.35;;;;;;;;;;5107563;27;20040;-84
2022/10/23 09:33:25;;;;;;;15.73;7.22;;;;;;;;;;5119959;27;20056;-84
2022/10/23 09:35:51;;;;;;;14.35;6.05;;;;;;;;;;5105395;27;20048;-82
2022/10/23 09:38:30;;;;;;;11.75;7.20;;;;;;;;;;5093282;27;20170;-85
2022/10/23 09:41:20;;;;;;;14.68;8.00;;;;;;;;;;5112503;27;20041;-83
2022/10/23 09:44:07;;;;;;;12.85;6.82;;;;;;;;;;5105529;27;20040;-86
2022/10/23 09:46:38;;;;;;;13.57;5.70;;;;;;;;;;5094654;28;20052;-82
2022/10/23 09:49:06;;;;;;;10.70;5.53;;;;;;;;;;5113677;28;20105;-82
2022/10/23 09:51:34;;;;;;;12.40;5.70;;;;;;;;;;5114032;28;20041;-88
2022/10/23 09:54:01;;;;;;;10.48;5.32;;;;;;;;;;5116600;27;20060;-87
2022/10/23 09:56:38;;;;;;;11.55;5.30;;;;;;;;;;5114727;27;20060;-84
2022/10/23 09:59:10;;;;;;;12.05;5.25;;;;;;;;;;5107136;28;21318;-81
2022/10/23 10:01:54;;;;;;;10.52;5.40;;;;;;;;;;5119699;28;20114;-88
2022/10/23 10:04:31;;;;;;;10.93;4.65;;;;;;;;;;5121185;27;20032;-81
2022/10/23 10:06:58;;;;;;;8.65;4.88;;;;;;;;;;5103346;27;20064;-86
2022/10/23 10:09:25;;;;;;;13.63;5.47;;;;;;;;;;5119316;28;20060;-83
2022/10/23 10:11:53;;;;;;;15.02;6.47;;;;;;;;;;5118191;28;20515;-88
2022/10/23 10:14:25;;;;;;;14.00;5.10;;;;;;;;;;5118995;28;20056;-88
2022/10/23 10:17:04;;;;;;;13.52;7.03;;;;;;;;;;5118368;28;20126;-84
2022/10/23 10:19:38;;;;;;;11.30;5.93;;;;;;;;;;5120482;27;20040;-82
2022/10/23 10:22:24;;;;;;;9.85;4.50;;;;;;;;;;5126416;27;20079;-81
2022/10/23 10:25:09;;;;;;;23.23;10.95;;;;;;;;;;5100746;28;20106;-86
2022/10/23 10:27:50;;;;;;;32.28;16.25;;;;;;;;;;5105546;28;20060;-82
2022/10/23 10:30:18;;;;;;;11.43;6.50;;;;;;;;;;5121044;27;20049;-83
2022/10/23 10:32:58;;;;;;;12.82;6.03;;;;;;;;;;5106865;27;20060;-86
2022/10/23 10:35:27;;;;;;;12.23;5.72;;;;;;;;;;5124952;27;20632;-82
2022/10/23 10:38:13;;;;;;;14.15;4.72;;;;;;;;;;5111445;28;20110;-83
2022/10/23 10:40:45;;;;;;;10.13;4.57;;;;;;;;;;5104416;28;20028;-85
2022/10/23 10:43:31;;;;;;;14.25;4.63;;;;;;;;;;5096824;28;20985;-82
2022/10/23 10:46:06;;;;;;;9.63;4.80;;;;;;;;;;5098771;28;20043;-88
2022/10/23 10:48:50;;;;;;;8.50;4.20;;;;;;;;;;5109143;27;20052;-83
2022/10/23 10:51:37;;;;;;;10.05;3.90;;;;;;;;;;5119757;27;20075;-83
2022/10/23 10:54:09;;;;;;;9.63;4.20;;;;;;;;;;5056795;28;20049;-83
2022/10/23 10:56:38;;;;;;;11.13;4.70;;;;;;;;;;5098474;28;20048;-83
2022/10/23 10:59:22;;;;;;;9.25;3.92;;;;;;;;;;5112741;27;20052;-83
2022/10/23 11:01:52;;;;;;;15.55;5.30;;;;;;;;;;5108615;28;20122;-86
2022/10/23 11:04:34;;;;;;;12.75;5.47;;;;;;;;;;5097888;28;20067;-85
2022/10/23 11:07:04;;;;;;;12.48;4.97;;;;;;;;;;5098024;28;20048;-89
2022/10/23 11:09:30;;;;;;;15.00;4.70;;;;;;;;;;5098662;27;20052;-82
2022/10/23 11:11:56;;;;;;;23.63;5.10;;;;;;;;;;5112328;27;20273;-83
2022/10/23 11:14:28;;;;;;;12.23;5.32;;;;;;;;;;5094001;28;20767;-83
2022/10/23 11:17:08;;;;;;;7.47;3.60;;;;;;;;;;5100449;28;20082;-83
2022/10/23 11:19:44;;;;;;;14.40;5.18;;;;;;;;;;5111495;27;20052;-83
2022/10/23 11:22:31;;;;;;;13.05;5.20;;;;;;;;;;5101688;28;20412;-84
2022/10/23 11:25:20;;;;;;;13.40;5.85;;;;;;;;;;5116239;27;20062;-83
2022/10/23 11:27:47;;;;;;;11.05;5.07;;;;;;;;;;5112742;27;20060;-82
2022/10/23 11:30:17;;;;;;;10.15;3.60;;;;;;;;;;5107713;27;20487;-87
2022/10/23 11:33:08;;;;;;;16.67;8.88;;;;;;;;;;5110840;27;20555;-85
2022/10/23 11:35:46;;;;;;;11.45;4.47;;;;;;;;;;5111967;27;20048;-81
2022/10/23 11:38:17;;;;;;;8.57;3.35;;;;;;;;;;5115211;27;20044;-84
2022/10/23 11:40:48;;;;;;;9.23;4.13;;;;;;;;;;5096056;28;20067;-84
2022/10/23 11:43:32;;;;;;;6.20;3.20;;;;;;;;;;5101442;27;20036;-84
2022/10/23 11:46:15;;;;;;;8.80;3.25;;;;;;;;;;5097616;27;20941;-83
2022/10/23 11:48:42;;;;;;;8.18;4.28;;;;;;;;;;5104503;27;20052;-84
2022/10/23 11:51:28;;;;;;;10.65;4.78;;;;;;;;;;5104887;27;20048;-83
2022/10/23 11:54:06;;;;;;;11.57;5.50;;;;;;;;;;5117431;27;20066;-83
2022/10/23 11:56:54;;;;;;;8.50;3.60;;;;;;;;;;5106865;27;20507;-83
2022/10/23 11:59:29;;;;;;;10.10;3.22;;;;;;;;;;5104101;27;20040;-83
2022/10/23 12:01:59;;;;;;;8.60;2.38;;;;;;;;;;5107567;27;21169;-83
2022/10/23 12:04:33;;;;;;;9.05;3.17;;;;;;;;;;5111063;27;20039;-84
2022/10/23 12:07:04;;;;;;;8.35;3.17;;;;;;;;;;5106875;27;20040;-84
2022/10/23 12:09:49;;;;;;;6.78;2.95;;;;;;;;;;5099720;27;20503;-84
2022/10/23 12:12:27;;;;;;;9.80;3.72;;;;;;;;;;5092653;28;20048;-84
2022/10/23 12:15:05;;;;;;;8.52;3.33;;;;;;;;;;5107253;27;20056;-84
2022/10/23 12:17:42;;;;;;;8.40;4.82;;;;;;;;;;5108141;27;20059;-83
2022/10/23 12:20:09;;;;;;;7.45;4.03;;;;;;;;;;5110189;28;20052;-84
2022/10/23 12:22:38;;;;;;;11.95;7.00;;;;;;;;;;5110320;28;20054;-84
2022/10/23 12:25:11;;;;;;;10.80;3.70;;;;;;;;;;5106464;27;20044;-84
2022/10/23 12:27:47;;;;;;;8.40;3.70;;;;;;;;;;5106915;27;20059;-83
2022/10/23 12:30:27;;;;;;;7.30;3.13;;;;;;;;;;5109721;28;20056;-83
2022/10/23 12:33:14;;;;;;;6.90;3.33;;;;;;;;;;5110104;27;20048;-84
2022/10/23 12:35:52;;;;;;;7.32;2.90;;;;;;;;;;5101164;28;20052;-83
2022/10/23 12:38:20;;;;;;;6.97;2.80;;;;;;;;;;5105602;28;20063;-83
2022/10/23 12:40:51;;;;;;;6.05;2.90;;;;;;;;;;5109125;27;20048;-83
2022/10/23 12:43:25;;;;;;;7.30;2.80;;;;;;;;;;5108996;28;20056;-83
2022/10/23 12:45:51;;;;;;;9.07;2.60;;;;;;;;;;5099647;28;20048;-83
2022/10/23 12:48:20;;;;;;;6.53;3.03;;;;;;;;;;5106365;27;20052;-83
2022/10/23 12:50:50;;;;;;;5.72;2.63;;;;;;;;;;5097466;28;20511;-84
2022/10/23 12:53:17;;;;;;;;;;;;;;;;;;5091689;28;20048;-84
2022/10/23 12:55:46;;;;;;;8.73;2.58;;;;;;;;;;5106686;27;42973;-83
2022/10/23 12:58:30;;;;;;;9.93;2.45;;;;;;;;;;5097713;27;20064;-83
2022/10/23 13:01:06;;;;;;;11.27;2.83;;;;;;;;;;5106679;27;20048;-83
2022/10/23 13:03:32;;;;;;;6.97;2.47;;;;;;;;;;5106314;27;20066;-84
2022/10/23 13:06:27;;;;;;;6.47;2.72;;;;;;;;;;5111523;27;20147;-83
2022/10/23 13:09:00;;;;;;;9.00;2.92;;;;;;;;;;5107204;27;20052;-83
2022/10/23 13:11:26;;;;;;;6.40;2.35;;;;;;;;;;5093713;27;20106;-84
2022/10/23 13:13:53;;;;;;;9.02;2.75;;;;;;;;;;5090097;28;20049;-84
2022/10/23 13:16:20;;;;;;;8.57;2.70;;;;;;;;;;5095172;27;20052;-84
2022/10/23 13:18:47;;;;;;;9.90;3.05;;;;;;;;;;5105194;27;20134;-83
2022/10/23 13:21:21;;;;;;;6.65;2.90;;;;;;;;;;5098450;27;20056;-83
2022/10/23 13:23:47;;;;;;;7.35;2.92;;;;;;;;;;5102658;28;20083;-84
2022/10/23 13:26:20;;;;;;;10.15;5.50;;;;;;;;;;5107219;28;20079;-83
2022/10/23 13:28:49;;;;;;;8.68;3.90;;;;;;;;;;5098415;28;21015;-83
2022/10/23 13:31:23;;;;;;;6.68;2.58;;;;;;;;;;5105833;27;20064;-84
2022/10/23 13:33:59;;;;;;;6.28;3.08;;;;;;;;;;5102521;28;20841;-84
2022/10/23 13:36:38;;;;;;;5.68;2.55;;;;;;;;;;5109380;28;20063;-83
2022/10/23 13:39:10;;;;;;;7.38;2.97;;;;;;;;;;5110835;27;20920;-84
2022/10/23 13:41:36;;;;;;;9.85;2.17;;;;;;;;;;5110018;27;20059;-83
2022/10/23 13:44:15;;;;;;;7.00;2.17;;;;;;;;;;5108453;28;20059;-83
2022/10/23 13:47:04;;;;;;;8.30;2.67;;;;;;;;;;5095887;28;20114;-83
2022/10/23 13:49:56;;;;;;;5.22;2.33;;;;;;;;;;5092687;27;20049;-83
2022/10/23 13:53:08;;;;;;;5.28;2.50;;;;;;;;;;5089453;27;20044;-83
2022/10/23 13:55:49;;;;;;;5.65;2.45;;;;;;;;;;5092465;27;20137;-83
2022/10/23 13:58:20;;;;;;;5.38;2.33;;;;;;;;;;5090902;28;20083;-83
2022/10/23 14:00:49;;;;;;;9.73;2.40;;;;;;;;;;5109701;27;20074;-82
2022/10/23 14:03:16;;;;;;;7.47;2.38;;;;;;;;;;5101654;27;20052;-82
2022/10/23 14:05:42;;;;;;;7.93;2.42;;;;;;;;;;5101136;27;20059;-83
2022/10/23 14:08:12;;;;;;;7.50;2.28;;;;;;;;;;5095958;28;20040;-83
2022/10/23 14:10:41;;;;;;;10.50;2.50;;;;;;;;;;5107615;27;20048;-85
2022/10/23 14:13:07;;;;;;;9.07;2.60;;;;;;;;;;5094588;28;20056;-85
2022/10/23 14:15:35;;;;;;;8.55;2.47;;;;;;;;;;5091022;27;20153;-84
2022/10/23 14:18:02;;;;;;;5.75;2.22;;;;;;;;;;5105339;28;20499;-85
2022/10/23 14:20:33;;;;;;;5.32;2.08;;;;;;;;;;5108338;28;20059;-84
2022/10/23 14:22:59;;;;;;;6.75;2.25;;;;;;;;;;5106477;27;20052;-85
2022/10/23 14:25:26;;;;;;;5.55;2.40;;;;;;;;;;5103865;27;20510;-84
2022/10/23 14:27:52;;;;;;;6.40;2.45;;;;;;;;;;5096659;28;20580;-84
2022/10/23 14:30:18;;;;;;;5.82;2.30;;;;;;;;;;5109725;28;20048;-84
2022/10/23 14:32:44;;;;;;;8.20;2.40;;;;;;;;;;5109942;28;20052;-84
2022/10/23 14:35:11;;;;;;;6.57;2.38;;;;;;;;;;5105254;28;20099;-85
2022/10/23 14:37:38;;;;;;;5.10;2.30;;;;;;;;;;5108257;27;20052;-85
2022/10/23 14:40:05;;;;;;;6.22;2.63;;;;;;;;;;5104321;28;20057;-85
2022/10/23 14:42:33;;;;;;;8.55;2.70;;;;;;;;;;5099061;28;20048;-85
2022/10/23 14:45:01;;;;;;;8.10;2.58;;;;;;;;;;5098988;27;20578;-86
2022/10/23 14:47:27;;;;;;;8.65;2.75;;;;;;;;;;5109447;27;20612;-86